Date,TemperatureHighF,TemperatureAvgF,TemperatureLowF,DewpointHighF,DewpointAvgF,DewpointLowF,HumidityHigh,HumidityAvg,HumidityLow,PressureMaxIn,PressureMinIn,WindSpeedMaxMPH,WindSpeedAvgMPH,GustSpeedMaxMPH,PrecipitationSumIn
2013-5-1,76.8,55.4,31.6,29.9,16.8,3.5,59,29,10,30.39,30.27,11,1,16,0.00
2013-5-2,83.1,59.0,37.8,34.9,21.6,2.1,68,32,10,30.39,30.23,15,2,22,0.00
2013-5-3,64.6,51.9,41.4,29.2,23.2,13.9,58,35,14,30.42,30.30,14,3,27,0.00
2013-5-4,66.7,50.5,33.8,35.7,16.8,-5.4,69,34,10,30.30,30.20,17,2,30,0.00
2013-5-5,70.7,50.3,31.8,32.0,18.7,4.2,66,36,10,30.24,30.14,10,2,17,0.00
2013-5-6,78.8,58.8,41.4,34.9,25.7,10.8,62,35,10,30.20,30.06,7,1,14,0.00
2013-5-7,81.9,62.8,40.3,42.1,31.2,14.4,69,38,10,30.10,30.01,8,1,11,0.00
2013-5-8,74.3,61.8,52.5,55.5,49.6,41.4,81,66,38,30.11,29.96,7,1,15,0.30
2013-5-9,75.4,60.6,56.7,59.2,53.6,46.6,84,78,36,29.97,29.79,4,0,7,0.34
2013-5-10,86.4,69.3,55.4,58.6,41.7,18.8,87,46,10,29.89,29.82,8,1,14,0.01
2013-5-11,72.3,63.3,57.6,55.7,51.1,42.7,80,65,44,29.85,29.62,12,2,20,0.09
2013-5-12,76.5,62.2,46.0,55.7,39.9,6.9,81,51,12,29.75,29.50,12,2,26,0.04
2013-5-13,63.3,49.6,34.3,31.1,10.0,-3.6,67,25,10,29.96,29.75,10,2,17,0.00
2013-5-14,60.4,48.4,33.3,27.4,11.2,-2.4,65,29,10,29.99,29.91,8,1,14,0.00
2013-5-15,67.8,50.9,29.7,45.5,25.6,4.1,71,47,10,29.99,29.62,9,2,22,0.02
2013-5-16,85.5,67.0,47.8,51.1,30.0,13.2,78,36,10,29.74,29.58,13,2,26,0.01
2013-5-17,75.0,59.9,44.4,42.3,23.6,7.5,70,33,10,30.14,29.73,8,2,17,0.00
2013-5-18,77.2,60.4,39.6,41.8,25.4,10.5,71,34,10,30.23,30.14,8,1,17,0.00
2013-5-19,73.8,59.0,44.6,48.5,37.8,23.5,76,50,17,30.27,30.14,8,1,14,0.09
2013-5-20,88.0,70.2,55.9,59.1,51.5,41.3,81,57,21,30.14,29.85,7,1,12,0.12
2013-5-21,91.4,69.0,52.5,65.7,53.5,45.5,82,62,24,29.90,29.75,12,1,22,0.12
2013-5-22,82.8,63.5,50.9,60.0,51.7,44.0,79,67,44,29.94,29.78,9,1,15,0.02
2013-5-23,77.4,67.7,59.2,62.5,58.8,51.8,86,74,54,29.85,29.73,11,2,22,0.19
2013-5-24,73.8,63.0,48.4,63.0,56.4,42.8,89,79,60,29.75,29.58,7,1,16,0.44
2013-5-25,53.4,47.6,41.4,45.5,40.8,32.9,83,77,68,29.75,29.65,8,2,16,0.20
2013-5-26,62.6,49.7,40.5,34.4,29.8,17.8,76,49,18,30.06,29.67,12,3,23,0.02
2013-5-27,76.8,57.6,37.4,40.3,22.6,7.5,78,37,10,30.09,30.00,11,2,21,0.00
2013-5-28,82.6,61.7,39.6,47.6,28.4,12.9,73,38,10,30.16,30.09,7,1,11,0.00
2013-5-29,84.2,67.1,57.6,59.3,53.5,47.3,79,64,34,30.11,29.93,10,0,18,0.44
2013-5-30,94.1,83.0,62.2,66.3,55.5,45.8,88,44,21,30.03,29.95,7,1,14,0.18
2013-5-31,97.2,81.9,64.4,63.9,54.0,37.6,82,45,14,30.03,29.88,7,1,14,0.00